地図

経路データ

SID SEASON NUMBER BASIN SUBBASIN NAME ISO_TIME NATURE LAT LON WMO_WIND WMO_PRES WMO_AGENCY TRACK_TYPE DIST2LAND LANDFALL IFLAG USA_AGENCY USA_ATCF_ID USA_LAT USA_LON USA_RECORD USA_STATUS USA_WIND USA_PRES USA_SSHS USA_R34_NE USA_R34_SE USA_R34_SW USA_R34_NW USA_R50_NE USA_R50_SE USA_R50_SW USA_R50_NW USA_R64_NE USA_R64_SE USA_R64_SW USA_R64_NW USA_POCI USA_ROCI USA_RMW USA_EYE TOKYO_LAT TOKYO_LON TOKYO_GRADE TOKYO_WIND TOKYO_PRES TOKYO_R50_DIR TOKYO_R50_LONG TOKYO_R50_SHORT TOKYO_R30_DIR TOKYO_R30_LONG TOKYO_R30_SHORT TOKYO_LAND CMA_LAT CMA_LON CMA_CAT CMA_WIND CMA_PRES HKO_LAT HKO_LON HKO_CAT HKO_WIND HKO_PRES NEWDELHI_LAT NEWDELHI_LON NEWDELHI_GRADE NEWDELHI_WIND NEWDELHI_PRES NEWDELHI_CI NEWDELHI_DP NEWDELHI_POCI REUNION_LAT REUNION_LON REUNION_TYPE REUNION_WIND REUNION_PRES REUNION_TNUM REUNION_CI REUNION_RMW REUNION_R34_NE REUNION_R34_SE REUNION_R34_SW REUNION_R34_NW REUNION_R50_NE REUNION_R50_SE REUNION_R50_SW REUNION_R50_NW REUNION_R64_NE REUNION_R64_SE REUNION_R64_SW REUNION_R64_NW BOM_LAT BOM_LON BOM_TYPE BOM_WIND BOM_PRES BOM_TNUM BOM_CI BOM_RMW BOM_R34_NE BOM_R34_SE BOM_R34_SW BOM_R34_NW BOM_R50_NE BOM_R50_SE BOM_R50_SW BOM_R50_NW BOM_R64_NE BOM_R64_SE BOM_R64_SW BOM_R64_NW BOM_ROCI BOM_POCI BOM_EYE BOM_POS_METHOD BOM_PRES_METHOD NADI_LAT NADI_LON NADI_CAT NADI_WIND NADI_PRES WELLINGTON_LAT WELLINGTON_LON WELLINGTON_WIND WELLINGTON_PRES DS824_LAT DS824_LON DS824_STAGE DS824_WIND DS824_PRES TD9636_LAT TD9636_LON TD9636_STAGE TD9636_WIND TD9636_PRES TD9635_LAT TD9635_LON TD9635_WIND TD9635_PRES TD9635_ROCI NEUMANN_LAT NEUMANN_LON NEUMANN_CLASS NEUMANN_WIND NEUMANN_PRES MLC_LAT MLC_LON MLC_CLASS MLC_WIND MLC_PRES USA_GUST BOM_GUST BOM_GUST_PER REUNION_GUST REUNION_GUST_PER USA_SEAHGT USA_SEARAD_NE USA_SEARAD_SE USA_SEARAD_SW USA_SEARAD_NW STORM_SPEED STORM_DIR
1908009S13062 1908 4 SI MM NOT_NAMED 1908-01-09 00:00:00 TS -12.7000 62.0000 main 946 906 _________O____ -1 -12.7000 62.0000 TC 8 210
1908009S13062 1908 4 SI MM NOT_NAMED 1908-01-09 03:00:00 TS -13.0350 61.8026 main 906 857 _________P____ -1 -13.0350 61.8026 TC 8 209
1908009S13062 1908 4 SI MM NOT_NAMED 1908-01-09 06:00:00 TS -13.4000 61.6000 main 857 807 _________O____ -1 -13.4000 61.6000 TC 9 207
1908009S13062 1908 4 SI MM NOT_NAMED 1908-01-09 09:00:00 TS -13.8075 61.3925 main 807 757 _________P____ -1 -13.8075 61.3925 TC 9 206
1908009S13062 1908 4 SI MM NOT_NAMED 1908-01-09 12:00:00 TS -14.2000 61.2000 main 757 723 _________O____ -1 -14.2000 61.2000 TC 8 206
1908009S13062 1908 4 SI MM NOT_NAMED 1908-01-09 15:00:00 TS -14.5075 61.0424 main 717 683 _________P____ -1 -14.5075 61.0424 TC 7 206
1908009S13062 1908 4 SI MM NOT_NAMED 1908-01-09 18:00:00 TS -14.8000 60.9000 main 683 648 _________O____ -1 -14.8000 60.9000 TC 7 204
1908009S13062 1908 4 SI MM NOT_NAMED 1908-01-09 21:00:00 TS -15.1575 60.7425 main 633 599 _________P____ -1 -15.1575 60.7425 TC 8 203
1908009S13062 1908 4 SI MM NOT_NAMED 1908-01-10 00:00:00 TS -15.5000 60.6000 main 599 574 _________O____ -1 -15.5000 60.6000 TC 7 202
1908009S13062 1908 4 SI MM NOT_NAMED 1908-01-10 03:00:00 TS -15.7575 60.4924 main 564 540 _________P____ -1 -15.7575 60.4924 TC 5 201
1908009S13062 1908 4 SI MM NOT_NAMED 1908-01-10 06:00:00 TS -16.0000 60.4000 main 540 506 _________O____ -1 -16.0000 60.4000 TC 6 199
1908009S13062 1908 4 SI MM NOT_NAMED 1908-01-10 09:00:00 TS -16.2925 60.3000 main 506 472 _________P____ -1 -16.2925 60.3000 TC 6 198
1908009S13062 1908 4 SI MM NOT_NAMED 1908-01-10 12:00:00 TS -16.6000 60.2000 main 472 438 _________O____ -1 -16.6000 60.2000 TC 6 198
1908009S13062 1908 4 SI MM NOT_NAMED 1908-01-10 15:00:00 TS -16.9000 60.0925 main 438 404 _________P____ -1 -16.9000 60.0925 TC 6 198
1908009S13062 1908 4 SI MM NOT_NAMED 1908-01-10 18:00:00 TS -17.2000 60.0000 main 404 371 _________O____ -1 -17.2000 60.0000 TC 6 193
1908009S13062 1908 4 SI MM NOT_NAMED 1908-01-10 21:00:00 TS -17.5150 59.9425 main 371 346 _________P____ -1 -17.5150 59.9425 TC 6 189
1908009S13062 1908 4 SI MM NOT_NAMED 1908-01-11 00:00:00 TS -17.8000 59.9000 main 346 329 _________O____ -1 -17.8000 59.9000 TC 5 190
1908009S13062 1908 4 SI MM NOT_NAMED 1908-01-11 03:00:00 TS -18.0075 59.8500 main 322 306 _________P____ -1 -18.0075 59.8500 TC 4 193
1908009S13062 1908 4 SI MM NOT_NAMED 1908-01-11 06:00:00 TS -18.2000 59.8000 main 306 283 _________O____ -1 -18.2000 59.8000 TC 4 194
1908009S13062 1908 4 SI MM NOT_NAMED 1908-01-11 09:00:00 TS -18.4425 59.7425 main 283 261 _________P____ -1 -18.4425 59.7425 TC 5 191
1908009S13062 1908 4 SI MM NOT_NAMED 1908-01-11 12:00:00 TS -18.7000 59.7000 main 261 248 _________O____ -1 -18.7000 59.7000 TC 5 185
1908009S13062 1908 4 SI MM NOT_NAMED 1908-01-11 15:00:00 TS -18.9500 59.6925 main 248 232 _________P____ -1 -18.9500 59.6925 TC 5 178
1908009S13062 1908 4 SI MM NOT_NAMED 1908-01-11 18:00:00 TS -19.2000 59.7000 main 232 222 _________O____ -1 -19.2000 59.7000 TC 5 178
1908009S13062 1908 4 SI MM NOT_NAMED 1908-01-11 21:00:00 TS -19.4500 59.6925 main 222 209 _________P____ -1 -19.4500 59.6925 TC 5 178
1908009S13062 1908 4 SI MM NOT_NAMED 1908-01-12 00:00:00 TS -19.7000 59.7000 main 209 203 _________O____ -1 -19.7000 59.7000 TC 5 175
1908009S13062 1908 4 SI MM NOT_NAMED 1908-01-12 03:00:00 TS -19.9575 59.7425 main 201 201 _________P____ -1 -19.9575 59.7425 TC 5 169
1908009S13062 1908 4 SI MM NOT_NAMED 1908-01-12 06:00:00 TS -20.2000 59.8000 main 208 208 _________O____ -1 -20.2000 59.8000 TC 5 167
1908009S13062 1908 4 SI MM NOT_NAMED 1908-01-12 09:00:00 TS -20.4150 59.8500 main 219 219 _________P____ -1 -20.4150 59.8500 TC 4 167
1908009S13062 1908 4 SI MM NOT_NAMED 1908-01-12 12:00:00 TS -20.6000 59.9000 main 221 221 _________O____ -1 -20.6000 59.9000 TC 4 165
1908009S13062 1908 4 SI MM NOT_NAMED 1908-01-12 15:00:00 TS -20.7575 59.9425 main 225 225 _________P____ -1 -20.7575 59.9425 TC 3 163
1908009S13062 1908 4 SI MM NOT_NAMED 1908-01-12 18:00:00 TS -20.9000 60.0000 main 238 238 _________O____ -1 -20.9000 60.0000 TC 3 155
1908009S13062 1908 4 SI MM NOT_NAMED 1908-01-12 21:00:00 TS -21.0350 60.0851 main 251 251 _________P____ -1 -21.0350 60.0851 TC 4 149
1908009S13062 1908 4 SI MM NOT_NAMED 1908-01-13 00:00:00 TS -21.2000 60.2000 main 269 269 _________O____ -1 -21.2000 60.2000 TC 5 150
1908009S13062 1908 4 SI MM NOT_NAMED 1908-01-13 03:00:00 TS -21.4425 60.3350 main 287 287 _________P____ -1 -21.4425 60.3350 TC 6 151
1908009S13062 1908 4 SI MM NOT_NAMED 1908-01-13 06:00:00 TS -21.7000 60.5000 main 319 319 _________O____ -1 -21.7000 60.5000 TC 6 145
1908009S13062 1908 4 SI MM NOT_NAMED 1908-01-13 09:00:00 TS -21.9150 60.6925 main 348 348 _________P____ -1 -21.9150 60.6925 TC 5 137
1908009S13062 1908 4 SI MM NOT_NAMED 1908-01-13 12:00:00 TS -22.1000 60.9000 main 376 376 _________O____ -1 -22.1000 60.9000 TC 5 132
1908009S13062 1908 4 SI MM NOT_NAMED 1908-01-13 15:00:00 TS -22.2575 61.1001 main 405 405 _________P____ -1 -22.2575 61.1001 TC 5 129
1908009S13062 1908 4 SI MM NOT_NAMED 1908-01-13 18:00:00 TS -22.4000 61.3000 main 428 428 _________O____ -1 -22.4000 61.3000 TC 5 128
1908009S13062 1908 4 SI MM NOT_NAMED 1908-01-13 21:00:00 TS -22.5476 61.4999 main 452 452 _________P____ -1 -22.5476 61.4999 TC 5 129
1908009S13062 1908 4 SI MM NOT_NAMED 1908-01-14 00:00:00 TS -22.7000 61.7000 main 481 _________O____ -1 -22.7000 61.7000 TC 5 129

IBTrACS Databaseについて

本データベースは、米国NOAAが公開する1842年以降の世界の熱帯低気圧のベストトラックデータアーカイブInternational Best Track Archive for Climate Stewardship (IBTrACS)を、ウェブで閲覧しやすい形式に変換したものです。

最終更新日:2021-12-08